Hill, New Hampshire
Current Conditions -  °F | °C
As of 7:35 AM on Monday 20 Oct 2014 (Local Time) from KLCI Reporting Station
Clear Clear  
Wind Chill: 31°   Ceiling: Unl
Heat Index: 37°   Visibility: 10mi
Dew Point: 25°   Wind: 9mph
Humidity: 60%   Direction: 240°WSW
Pressure: 29.96"   Gusts: NA
Location:  43.52°N, 71.7°W
Report Text: KLCI 201135Z AUTO 24008KT 10SM CLR 03/M04 A2996 RMK AO1
Loading
Personal Weather Stations






























Interactive Weather Map
Tropical Storm Tracking
New forecast layout! Learn more

10-Day Weather Forecast

Advertisements
Track Severe Weather on mobile